sensor_id;sensor_type;location;lat;lon;timestamp;temperature;humidity
6206;DHT22;3136;48.788;9.772;2023-07-20T00:00:53;17.40;1.00
6206;DHT22;3136;48.788;9.772;2023-07-20T00:03:19;17.50;99.90
6206;DHT22;3136;48.788;9.772;2023-07-20T00:05:49;17.60;99.90
6206;DHT22;3136;48.788;9.772;2023-07-20T00:08:16;17.60;99.90
6206;DHT22;3136;48.788;9.772;2023-07-20T00:10:42;17.70;99.90
6206;DHT22;3136;48.788;9.772;2023-07-20T00:13:09;17.80;99.90
6206;DHT22;3136;48.788;9.772;2023-07-20T00:15:35;17.80;99.90
6206;DHT22;3136;48.788;9.772;2023-07-20T00:18:01;17.90;99.90
6206;DHT22;3136;48.788;9.772;2023-07-20T00:20:26;17.90;99.90
6206;DHT22;3136;48.788;9.772;2023-07-20T00:22:52;18.00;99.90
6206;DHT22;3136;48.788;9.772;2023-07-20T00:25:20;18.10;99.90
6206;DHT22;3136;48.788;9.772;2023-07-20T00:27:46;18.00;99.90
6206;DHT22;3136;48.788;9.772;2023-07-20T00:30:12;18.10;99.90
6206;DHT22;3136;48.788;9.772;2023-07-20T00:32:38;18.10;99.90
6206;DHT22;3136;48.788;9.772;2023-07-20T00:35:04;18.10;99.90
6206;DHT22;3136;48.788;9.772;2023-07-20T00:37:30;18.20;99.90
6206;DHT22;3136;48.788;9.772;2023-07-20T00:39:55;18.20;99.90
6206;DHT22;3136;48.788;9.772;2023-07-20T00:42:21;18.20;99.90
6206;DHT22;3136;48.788;9.772;2023-07-20T00:44:47;18.20;99.90
6206;DHT22;3136;48.788;9.772;2023-07-20T00:47:12;18.10;99.90
6206;DHT22;3136;48.788;9.772;2023-07-20T00:49:38;18.00;99.90
6206;DHT22;3136;48.788;9.772;2023-07-20T00:52:06;18.10;99.90
6206;DHT22;3136;48.788;9.772;2023-07-20T00:54:32;18.10;99.90
6206;DHT22;3136;48.788;9.772;2023-07-20T00:56:59;18.10;99.90
6206;DHT22;3136;48.788;9.772;2023-07-20T00:59:26;18.10;99.90
6206;DHT22;3136;48.788;9.772;2023-07-20T01:01:52;18.00;99.90
6206;DHT22;3136;48.788;9.772;2023-07-20T01:04:18;18.00;99.90
6206;DHT22;3136;48.788;9.772;2023-07-20T01:09:35;17.90;99.90
6206;DHT22;3136;48.788;9.772;2023-07-20T01:12:12;17.90;99.90
6206;DHT22;3136;48.788;9.772;2023-07-20T01:14:39;17.90;99.90
6206;DHT22;3136;48.788;9.772;2023-07-20T01:17:05;17.90;99.90
6206;DHT22;3136;48.788;9.772;2023-07-20T01:19:31;17.90;99.90
6206;DHT22;3136;48.788;9.772;2023-07-20T01:22:26;17.90;99.90
6206;DHT22;3136;48.788;9.772;2023-07-20T01:32:47;18.00;99.90
6206;DHT22;3136;48.788;9.772;2023-07-20T01:35:14;18.00;99.90
6206;DHT22;3136;48.788;9.772;2023-07-20T01:37:43;18.00;99.90
6206;DHT22;3136;48.788;9.772;2023-07-20T01:40:13;18.00;99.90
6206;DHT22;3136;48.788;9.772;2023-07-20T01:42:44;18.00;99.90
6206;DHT22;3136;48.788;9.772;2023-07-20T01:45:10;18.00;99.90
6206;DHT22;3136;48.788;9.772;2023-07-20T01:47:35;17.90;99.90
6206;DHT22;3136;48.788;9.772;2023-07-20T01:50:01;17.90;99.90
6206;DHT22;3136;48.788;9.772;2023-07-20T01:52:26;17.90;99.90
6206;DHT22;3136;48.788;9.772;2023-07-20T01:54:52;17.70;99.90
6206;DHT22;3136;48.788;9.772;2023-07-20T01:57:17;17.60;99.90
6206;DHT22;3136;48.788;9.772;2023-07-20T01:59:43;17.50;99.90
6206;DHT22;3136;48.788;9.772;2023-07-20T02:02:09;17.50;99.90
6206;DHT22;3136;48.788;9.772;2023-07-20T02:04:34;17.30;99.90
6206;DHT22;3136;48.788;9.772;2023-07-20T02:07:00;17.20;99.90
6206;DHT22;3136;48.788;9.772;2023-07-20T02:09:25;17.10;99.90
6206;DHT22;3136;48.788;9.772;2023-07-20T02:11:51;17.00;99.90
6206;DHT22;3136;48.788;9.772;2023-07-20T02:14:16;16.90;99.90
6206;DHT22;3136;48.788;9.772;2023-07-20T02:16:42;16.80;99.90
6206;DHT22;3136;48.788;9.772;2023-07-20T02:19:07;16.70;99.90
6206;DHT22;3136;48.788;9.772;2023-07-20T02:21:33;16.70;99.90
6206;DHT22;3136;48.788;9.772;2023-07-20T02:23:59;16.60;99.90
6206;DHT22;3136;48.788;9.772;2023-07-20T02:26:25;16.60;99.90
6206;DHT22;3136;48.788;9.772;2023-07-20T02:28:50;16.40;99.90
6206;DHT22;3136;48.788;9.772;2023-07-20T02:31:16;16.40;99.90
6206;DHT22;3136;48.788;9.772;2023-07-20T02:33:41;16.40;99.90
6206;DHT22;3136;48.788;9.772;2023-07-20T02:36:07;16.30;99.90
6206;DHT22;3136;48.788;9.772;2023-07-20T02:38:32;16.20;99.90
6206;DHT22;3136;48.788;9.772;2023-07-20T02:40:58;16.20;99.90
6206;DHT22;3136;48.788;9.772;2023-07-20T02:43:24;16.10;99.90
6206;DHT22;3136;48.788;9.772;2023-07-20T02:45:50;16.00;99.90
6206;DHT22;3136;48.788;9.772;2023-07-20T02:48:16;15.90;99.90
6206;DHT22;3136;48.788;9.772;2023-07-20T02:50:43;15.80;99.90
6206;DHT22;3136;48.788;9.772;2023-07-20T02:53:09;15.70;99.90
6206;DHT22;3136;48.788;9.772;2023-07-20T02:55:34;15.70;99.90
6206;DHT22;3136;48.788;9.772;2023-07-20T02:58:00;15.60;99.90
6206;DHT22;3136;48.788;9.772;2023-07-20T03:00:26;15.50;99.90
6206;DHT22;3136;48.788;9.772;2023-07-20T03:02:51;15.40;99.90
6206;DHT22;3136;48.788;9.772;2023-07-20T03:05:21;15.30;1.00
6206;DHT22;3136;48.788;9.772;2023-07-20T03:07:48;15.30;1.00
6206;DHT22;3136;48.788;9.772;2023-07-20T03:10:14;15.30;1.00
6206;DHT22;3136;48.788;9.772;2023-07-20T03:12:39;15.30;1.00
6206;DHT22;3136;48.788;9.772;2023-07-20T03:15:05;15.20;1.00
6206;DHT22;3136;48.788;9.772;2023-07-20T03:17:31;15.10;1.00
6206;DHT22;3136;48.788;9.772;2023-07-20T03:19:57;15.10;1.00
6206;DHT22;3136;48.788;9.772;2023-07-20T03:22:22;15.00;1.00
6206;DHT22;3136;48.788;9.772;2023-07-20T03:24:49;14.90;1.00
6206;DHT22;3136;48.788;9.772;2023-07-20T03:27:15;15.00;1.00
6206;DHT22;3136;48.788;9.772;2023-07-20T03:29:40;14.80;1.00
6206;DHT22;3136;48.788;9.772;2023-07-20T03:32:06;14.80;1.00
6206;DHT22;3136;48.788;9.772;2023-07-20T03:34:32;14.70;1.00
6206;DHT22;3136;48.788;9.772;2023-07-20T03:36:57;14.70;1.00
6206;DHT22;3136;48.788;9.772;2023-07-20T03:39:24;14.70;1.00
6206;DHT22;3136;48.788;9.772;2023-07-20T03:41:50;14.60;1.00
6206;DHT22;3136;48.788;9.772;2023-07-20T03:44:15;14.50;1.00
6206;DHT22;3136;48.788;9.772;2023-07-20T03:46:41;14.50;33.60
6206;DHT22;3136;48.788;9.772;2023-07-20T03:49:06;14.50;70.00
6206;DHT22;3136;48.788;9.772;2023-07-20T03:51:34;14.40;99.90
6206;DHT22;3136;48.788;9.772;2023-07-20T03:54:00;14.40;99.90
6206;DHT22;3136;48.788;9.772;2023-07-20T03:56:25;14.40;99.90
6206;DHT22;3136;48.788;9.772;2023-07-20T03:58:51;14.30;99.90
6206;DHT22;3136;48.788;9.772;2023-07-20T04:01:17;14.30;99.90
6206;DHT22;3136;48.788;9.772;2023-07-20T04:03:42;14.30;99.90
6206;DHT22;3136;48.788;9.772;2023-07-20T04:06:08;14.20;99.90
6206;DHT22;3136;48.788;9.772;2023-07-20T04:08:35;14.10;1.00
6206;DHT22;3136;48.788;9.772;2023-07-20T04:11:03;14.10;1.00
6206;DHT22;3136;48.788;9.772;2023-07-20T04:13:29;14.20;1.00
6206;DHT22;3136;48.788;9.772;2023-07-20T04:15:58;14.00;1.00
6206;DHT22;3136;48.788;9.772;2023-07-20T04:18:24;14.00;59.20
6206;DHT22;3136;48.788;9.772;2023-07-20T04:20:49;14.00;76.70
6206;DHT22;3136;48.788;9.772;2023-07-20T04:23:15;14.10;55.40
6206;DHT22;3136;48.788;9.772;2023-07-20T04:25:41;14.10;5.40
6206;DHT22;3136;48.788;9.772;2023-07-20T04:28:07;14.10;1.00
6206;DHT22;3136;48.788;9.772;2023-07-20T04:30:36;14.10;1.00
6206;DHT22;3136;48.788;9.772;2023-07-20T04:33:03;14.20;1.00
6206;DHT22;3136;48.788;9.772;2023-07-20T04:35:53;14.30;1.00
6206;DHT22;3136;48.788;9.772;2023-07-20T04:38:19;14.30;1.00
6206;DHT22;3136;48.788;9.772;2023-07-20T04:40:47;14.40;1.00
6206;DHT22;3136;48.788;9.772;2023-07-20T04:43:16;14.40;1.00
6206;DHT22;3136;48.788;9.772;2023-07-20T04:45:42;14.50;1.00
6206;DHT22;3136;48.788;9.772;2023-07-20T04:48:13;14.50;1.00
6206;DHT22;3136;48.788;9.772;2023-07-20T04:50:40;14.50;1.00
6206;DHT22;3136;48.788;9.772;2023-07-20T04:53:06;14.50;99.90
6206;DHT22;3136;48.788;9.772;2023-07-20T04:55:32;14.50;99.90
6206;DHT22;3136;48.788;9.772;2023-07-20T04:58:00;14.60;99.90
6206;DHT22;3136;48.788;9.772;2023-07-20T05:00:26;14.60;99.90
6206;DHT22;3136;48.788;9.772;2023-07-20T05:02:51;14.60;99.90
6206;DHT22;3136;48.788;9.772;2023-07-20T05:05:17;14.60;99.90
6206;DHT22;3136;48.788;9.772;2023-07-20T05:07:43;14.70;99.90
6206;DHT22;3136;48.788;9.772;2023-07-20T05:10:08;14.70;99.90
6206;DHT22;3136;48.788;9.772;2023-07-20T05:12:34;14.90;99.90
6206;DHT22;3136;48.788;9.772;2023-07-20T05:14:59;15.00;99.90
6206;DHT22;3136;48.788;9.772;2023-07-20T05:17:25;15.00;99.90
6206;DHT22;3136;48.788;9.772;2023-07-20T05:19:50;15.10;99.90
6206;DHT22;3136;48.788;9.772;2023-07-20T05:22:16;15.20;1.00
6206;DHT22;3136;48.788;9.772;2023-07-20T05:24:42;15.30;1.00
6206;DHT22;3136;48.788;9.772;2023-07-20T05:27:07;15.40;1.00
6206;DHT22;3136;48.788;9.772;2023-07-20T05:29:33;15.50;1.00
6206;DHT22;3136;48.788;9.772;2023-07-20T05:31:59;15.60;1.00
6206;DHT22;3136;48.788;9.772;2023-07-20T05:34:24;15.70;1.00
6206;DHT22;3136;48.788;9.772;2023-07-20T05:36:50;15.80;1.00
6206;DHT22;3136;48.788;9.772;2023-07-20T05:39:17;15.90;1.00
6206;DHT22;3136;48.788;9.772;2023-07-20T05:41:43;16.00;1.00
6206;DHT22;3136;48.788;9.772;2023-07-20T05:44:08;16.10;1.00
6206;DHT22;3136;48.788;9.772;2023-07-20T05:46:34;16.20;1.00
6206;DHT22;3136;48.788;9.772;2023-07-20T05:48:59;16.40;1.00
6206;DHT22;3136;48.788;9.772;2023-07-20T05:51:25;16.50;1.00
6206;DHT22;3136;48.788;9.772;2023-07-20T05:53:51;16.60;99.90
6206;DHT22;3136;48.788;9.772;2023-07-20T05:56:16;16.70;99.90
6206;DHT22;3136;48.788;9.772;2023-07-20T05:58:42;16.80;99.90
6206;DHT22;3136;48.788;9.772;2023-07-20T06:01:08;17.00;99.90
6206;DHT22;3136;48.788;9.772;2023-07-20T06:03:33;17.10;99.90
6206;DHT22;3136;48.788;9.772;2023-07-20T06:06:03;17.30;99.90
6206;DHT22;3136;48.788;9.772;2023-07-20T06:08:30;17.50;99.90
6206;DHT22;3136;48.788;9.772;2023-07-20T06:10:56;17.60;99.90
6206;DHT22;3136;48.788;9.772;2023-07-20T06:13:21;17.80;99.90
6206;DHT22;3136;48.788;9.772;2023-07-20T06:15:47;17.90;99.90
6206;DHT22;3136;48.788;9.772;2023-07-20T06:18:13;18.00;99.90
6206;DHT22;3136;48.788;9.772;2023-07-20T06:20:39;18.10;99.90
6206;DHT22;3136;48.788;9.772;2023-07-20T06:23:05;18.30;99.90
6206;DHT22;3136;48.788;9.772;2023-07-20T06:25:30;18.30;99.90
6206;DHT22;3136;48.788;9.772;2023-07-20T06:27:56;18.50;99.90
6206;DHT22;3136;48.788;9.772;2023-07-20T06:30:22;18.60;99.90
6206;DHT22;3136;48.788;9.772;2023-07-20T06:32:48;18.60;99.90
6206;DHT22;3136;48.788;9.772;2023-07-20T06:35:14;18.80;99.90
6206;DHT22;3136;48.788;9.772;2023-07-20T06:37:39;19.00;99.90
6206;DHT22;3136;48.788;9.772;2023-07-20T06:40:06;19.10;99.90
6206;DHT22;3136;48.788;9.772;2023-07-20T06:42:34;19.20;93.90
6206;DHT22;3136;48.788;9.772;2023-07-20T06:45:01;19.30;78.80
6206;DHT22;3136;48.788;9.772;2023-07-20T06:47:26;19.40;87.50
6206;DHT22;3136;48.788;9.772;2023-07-20T06:49:52;19.50;82.80
6206;DHT22;3136;48.788;9.772;2023-07-20T06:52:18;19.60;88.20
6206;DHT22;3136;48.788;9.772;2023-07-20T06:54:43;19.60;95.00
6206;DHT22;3136;48.788;9.772;2023-07-20T06:57:09;19.70;98.70
6206;DHT22;3136;48.788;9.772;2023-07-20T06:59:34;20.00;93.20
6206;DHT22;3136;48.788;9.772;2023-07-20T07:02:00;19.70;66.30
6206;DHT22;3136;48.788;9.772;2023-07-20T07:04:25;19.80;65.50
6206;DHT22;3136;48.788;9.772;2023-07-20T07:06:52;19.70;64.10
6206;DHT22;3136;48.788;9.772;2023-07-20T07:09:18;19.70;54.20
6206;DHT22;3136;48.788;9.772;2023-07-20T07:11:44;19.80;54.60
6206;DHT22;3136;48.788;9.772;2023-07-20T07:14:11;19.90;56.20
6206;DHT22;3136;48.788;9.772;2023-07-20T07:16:37;20.00;63.70
6206;DHT22;3136;48.788;9.772;2023-07-20T07:19:02;20.10;45.60
6206;DHT22;3136;48.788;9.772;2023-07-20T07:21:28;20.10;59.40
6206;DHT22;3136;48.788;9.772;2023-07-20T07:23:55;20.10;46.90
6206;DHT22;3136;48.788;9.772;2023-07-20T07:26:23;20.10;46.30
6206;DHT22;3136;48.788;9.772;2023-07-20T07:28:49;20.10;48.30
6206;DHT22;3136;48.788;9.772;2023-07-20T07:31:14;20.00;44.00
6206;DHT22;3136;48.788;9.772;2023-07-20T07:33:40;20.10;77.80
6206;DHT22;3136;48.788;9.772;2023-07-20T07:36:06;20.00;50.80
6206;DHT22;3136;48.788;9.772;2023-07-20T07:38:31;20.10;55.20
6206;DHT22;3136;48.788;9.772;2023-07-20T07:40:58;20.10;50.10
6206;DHT22;3136;48.788;9.772;2023-07-20T07:43:23;20.10;41.50
6206;DHT22;3136;48.788;9.772;2023-07-20T07:45:49;20.20;54.80
6206;DHT22;3136;48.788;9.772;2023-07-20T07:48:15;20.40;49.80
6206;DHT22;3136;48.788;9.772;2023-07-20T07:50:40;20.50;49.50
6206;DHT22;3136;48.788;9.772;2023-07-20T07:53:07;20.60;49.90
6206;DHT22;3136;48.788;9.772;2023-07-20T07:55:35;20.70;46.50
6206;DHT22;3136;48.788;9.772;2023-07-20T07:58:00;20.80;35.30
6206;DHT22;3136;48.788;9.772;2023-07-20T08:00:26;20.80;39.90
6206;DHT22;3136;48.788;9.772;2023-07-20T08:02:52;20.80;43.70
6206;DHT22;3136;48.788;9.772;2023-07-20T08:05:17;20.80;34.10
6206;DHT22;3136;48.788;9.772;2023-07-20T08:07:43;20.70;38.60
6206;DHT22;3136;48.788;9.772;2023-07-20T08:10:09;20.80;44.00
6206;DHT22;3136;48.788;9.772;2023-07-20T08:12:35;20.80;36.40
6206;DHT22;3136;48.788;9.772;2023-07-20T08:15:00;20.80;46.80
6206;DHT22;3136;48.788;9.772;2023-07-20T08:17:26;20.80;40.50
6206;DHT22;3136;48.788;9.772;2023-07-20T08:19:52;20.80;39.10
6206;DHT22;3136;48.788;9.772;2023-07-20T08:22:17;20.90;37.90
6206;DHT22;3136;48.788;9.772;2023-07-20T08:24:43;21.10;38.60
6206;DHT22;3136;48.788;9.772;2023-07-20T08:27:09;21.10;31.40
6206;DHT22;3136;48.788;9.772;2023-07-20T08:29:35;21.40;24.80
6206;DHT22;3136;48.788;9.772;2023-07-20T08:32:02;21.40;25.20
6206;DHT22;3136;48.788;9.772;2023-07-20T08:34:27;21.50;29.30
6206;DHT22;3136;48.788;9.772;2023-07-20T08:36:53;21.50;29.50
6206;DHT22;3136;48.788;9.772;2023-07-20T08:39:19;21.70;24.60
6206;DHT22;3136;48.788;9.772;2023-07-20T08:41:47;21.80;20.90
6206;DHT22;3136;48.788;9.772;2023-07-20T08:44:13;21.70;22.90
6206;DHT22;3136;48.788;9.772;2023-07-20T08:46:40;21.60;24.50
6206;DHT22;3136;48.788;9.772;2023-07-20T08:49:06;21.40;23.10
6206;DHT22;3136;48.788;9.772;2023-07-20T08:51:33;21.40;24.60
6206;DHT22;3136;48.788;9.772;2023-07-20T08:53:59;21.40;24.10
6206;DHT22;3136;48.788;9.772;2023-07-20T08:56:31;21.30;27.30
6206;DHT22;3136;48.788;9.772;2023-07-20T08:58:56;21.20;32.60
6206;DHT22;3136;48.788;9.772;2023-07-20T09:01:22;21.20;33.50
6206;DHT22;3136;48.788;9.772;2023-07-20T09:03:49;21.10;29.40
6206;DHT22;3136;48.788;9.772;2023-07-20T09:06:15;21.10;38.80
6206;DHT22;3136;48.788;9.772;2023-07-20T09:08:41;21.20;29.30
6206;DHT22;3136;48.788;9.772;2023-07-20T09:11:10;21.20;33.70
6206;DHT22;3136;48.788;9.772;2023-07-20T09:13:35;21.20;28.30
6206;DHT22;3136;48.788;9.772;2023-07-20T09:16:02;21.10;28.30
6206;DHT22;3136;48.788;9.772;2023-07-20T09:18:32;21.10;31.10
6206;DHT22;3136;48.788;9.772;2023-07-20T09:21:04;21.10;28.90
6206;DHT22;3136;48.788;9.772;2023-07-20T09:23:37;21.30;36.60
6206;DHT22;3136;48.788;9.772;2023-07-20T09:26:13;21.60;27.60
6206;DHT22;3136;48.788;9.772;2023-07-20T09:28:52;21.80;22.10
6206;DHT22;3136;48.788;9.772;2023-07-20T09:31:19;21.90;21.30
6206;DHT22;3136;48.788;9.772;2023-07-20T09:33:46;22.20;22.80
6206;DHT22;3136;48.788;9.772;2023-07-20T09:36:12;22.40;19.30
6206;DHT22;3136;48.788;9.772;2023-07-20T09:38:42;22.60;14.30
6206;DHT22;3136;48.788;9.772;2023-07-20T09:41:12;22.80;13.00
6206;DHT22;3136;48.788;9.772;2023-07-20T09:43:38;22.90;12.00
6206;DHT22;3136;48.788;9.772;2023-07-20T09:46:05;22.90;10.40
6206;DHT22;3136;48.788;9.772;2023-07-20T09:48:30;22.70;11.20
6206;DHT22;3136;48.788;9.772;2023-07-20T09:50:56;22.60;13.80
6206;DHT22;3136;48.788;9.772;2023-07-20T09:53:24;22.60;11.30
6206;DHT22;3136;48.788;9.772;2023-07-20T09:55:52;22.70;13.70
6206;DHT22;3136;48.788;9.772;2023-07-20T09:58:18;22.70;14.10
6206;DHT22;3136;48.788;9.772;2023-07-20T10:00:45;22.70;16.10
6206;DHT22;3136;48.788;9.772;2023-07-20T10:03:14;23.00;11.10
6206;DHT22;3136;48.788;9.772;2023-07-20T10:05:43;23.20;10.10
6206;DHT22;3136;48.788;9.772;2023-07-20T10:08:12;23.40;8.30
6206;DHT22;3136;48.788;9.772;2023-07-20T10:10:41;23.70;8.20
6206;DHT22;3136;48.788;9.772;2023-07-20T10:13:13;23.90;5.50
6206;DHT22;3136;48.788;9.772;2023-07-20T10:16:03;24.00;4.80
6206;DHT22;3136;48.788;9.772;2023-07-20T10:21:03;23.50;2.70
6206;DHT22;3136;48.788;9.772;2023-07-20T10:23:32;23.40;2.10
6206;DHT22;3136;48.788;9.772;2023-07-20T10:25:59;23.20;4.90
6206;DHT22;3136;48.788;9.772;2023-07-20T10:28:26;23.20;5.20
6206;DHT22;3136;48.788;9.772;2023-07-20T10:30:52;23.60;4.80
6206;DHT22;3136;48.788;9.772;2023-07-20T10:33:18;23.80;2.70
6206;DHT22;3136;48.788;9.772;2023-07-20T10:35:56;24.00;1.50
6206;DHT22;3136;48.788;9.772;2023-07-20T10:38:42;24.20;1.50
6206;DHT22;3136;48.788;9.772;2023-07-20T10:43:43;24.60;1.00
6206;DHT22;3136;48.788;9.772;2023-07-20T10:46:11;24.80;1.00
6206;DHT22;3136;48.788;9.772;2023-07-20T10:48:59;25.00;1.00
6206;DHT22;3136;48.788;9.772;2023-07-20T10:51:26;25.50;1.00
6206;DHT22;3136;48.788;9.772;2023-07-20T10:53:51;26.00;1.00
6206;DHT22;3136;48.788;9.772;2023-07-20T10:56:22;26.40;1.00
6206;DHT22;3136;48.788;9.772;2023-07-20T10:58:49;26.70;1.00
6206;DHT22;3136;48.788;9.772;2023-07-20T11:01:17;26.70;1.00
6206;DHT22;3136;48.788;9.772;2023-07-20T11:03:44;26.30;1.00
6206;DHT22;3136;48.788;9.772;2023-07-20T11:09:06;25.20;1.00
6206;DHT22;3136;48.788;9.772;2023-07-20T11:11:39;25.20;1.00
6206;DHT22;3136;48.788;9.772;2023-07-20T11:14:08;25.30;1.00
6206;DHT22;3136;48.788;9.772;2023-07-20T11:19:04;25.30;1.00
6206;DHT22;3136;48.788;9.772;2023-07-20T11:21:36;25.00;1.00
6206;DHT22;3136;48.788;9.772;2023-07-20T11:24:04;24.90;1.00
6206;DHT22;3136;48.788;9.772;2023-07-20T11:26:29;25.60;1.00
6206;DHT22;3136;48.788;9.772;2023-07-20T11:28:55;26.30;1.00
6206;DHT22;3136;48.788;9.772;2023-07-20T11:31:20;27.00;1.00
6206;DHT22;3136;48.788;9.772;2023-07-20T11:33:46;27.40;1.00
6206;DHT22;3136;48.788;9.772;2023-07-20T11:36:13;27.80;1.00
6206;DHT22;3136;48.788;9.772;2023-07-20T11:38:41;28.10;1.00
6206;DHT22;3136;48.788;9.772;2023-07-20T11:41:08;28.50;1.00
6206;DHT22;3136;48.788;9.772;2023-07-20T11:43:34;28.80;1.00
6206;DHT22;3136;48.788;9.772;2023-07-20T11:46:00;28.80;1.00
6206;DHT22;3136;48.788;9.772;2023-07-20T11:48:26;28.20;1.00
6206;DHT22;3136;48.788;9.772;2023-07-20T11:50:52;28.60;1.00
6206;DHT22;3136;48.788;9.772;2023-07-20T11:53:18;28.60;1.00
6206;DHT22;3136;48.788;9.772;2023-07-20T11:55:45;28.90;1.00
6206;DHT22;3136;48.788;9.772;2023-07-20T11:58:11;28.40;1.00
6206;DHT22;3136;48.788;9.772;2023-07-20T12:00:38;28.50;1.00
6206;DHT22;3136;48.788;9.772;2023-07-20T12:03:06;28.70;1.00
6206;DHT22;3136;48.788;9.772;2023-07-20T12:05:32;28.80;1.00
6206;DHT22;3136;48.788;9.772;2023-07-20T12:07:58;28.40;1.00
6206;DHT22;3136;48.788;9.772;2023-07-20T12:10:25;28.50;1.00
6206;DHT22;3136;48.788;9.772;2023-07-20T12:12:51;29.00;1.00
6206;DHT22;3136;48.788;9.772;2023-07-20T12:15:24;29.30;1.00
6206;DHT22;3136;48.788;9.772;2023-07-20T12:17:56;29.70;1.00
6206;DHT22;3136;48.788;9.772;2023-07-20T12:20:30;29.20;1.00
6206;DHT22;3136;48.788;9.772;2023-07-20T12:23:12;28.30;1.00
6206;DHT22;3136;48.788;9.772;2023-07-20T12:25:46;27.30;1.00
6206;DHT22;3136;48.788;9.772;2023-07-20T12:28:12;26.80;1.00
6206;DHT22;3136;48.788;9.772;2023-07-20T12:30:40;26.60;1.00
6206;DHT22;3136;48.788;9.772;2023-07-20T12:33:06;27.10;1.00
6206;DHT22;3136;48.788;9.772;2023-07-20T12:35:32;27.50;1.00
6206;DHT22;3136;48.788;9.772;2023-07-20T12:37:58;27.90;1.00
6206;DHT22;3136;48.788;9.772;2023-07-20T12:40:25;28.20;1.00
6206;DHT22;3136;48.788;9.772;2023-07-20T12:42:50;28.70;1.00
6206;DHT22;3136;48.788;9.772;2023-07-20T12:45:16;29.40;1.00
6206;DHT22;3136;48.788;9.772;2023-07-20T12:47:42;29.70;1.00
6206;DHT22;3136;48.788;9.772;2023-07-20T12:50:12;30.40;1.00
6206;DHT22;3136;48.788;9.772;2023-07-20T12:52:39;30.40;1.00
6206;DHT22;3136;48.788;9.772;2023-07-20T12:55:06;30.10;1.00
6206;DHT22;3136;48.788;9.772;2023-07-20T12:57:33;30.00;1.00
6206;DHT22;3136;48.788;9.772;2023-07-20T12:59:59;29.50;1.00
6206;DHT22;3136;48.788;9.772;2023-07-20T13:02:24;28.60;1.00
6206;DHT22;3136;48.788;9.772;2023-07-20T13:04:50;28.10;1.00
6206;DHT22;3136;48.788;9.772;2023-07-20T13:07:16;27.80;1.00
6206;DHT22;3136;48.788;9.772;2023-07-20T13:09:41;28.00;1.00
6206;DHT22;3136;48.788;9.772;2023-07-20T13:12:07;28.60;1.00
6206;DHT22;3136;48.788;9.772;2023-07-20T13:14:33;29.50;1.00
6206;DHT22;3136;48.788;9.772;2023-07-20T13:16:59;30.40;1.00
6206;DHT22;3136;48.788;9.772;2023-07-20T13:19:24;31.20;1.00
6206;DHT22;3136;48.788;9.772;2023-07-20T13:21:50;31.30;1.00
6206;DHT22;3136;48.788;9.772;2023-07-20T13:24:15;31.50;1.00
6206;DHT22;3136;48.788;9.772;2023-07-20T13:26:42;31.30;1.00
6206;DHT22;3136;48.788;9.772;2023-07-20T13:29:07;31.00;1.00
6206;DHT22;3136;48.788;9.772;2023-07-20T13:31:33;30.60;1.00
6206;DHT22;3136;48.788;9.772;2023-07-20T13:33:59;30.10;1.00
6206;DHT22;3136;48.788;9.772;2023-07-20T13:36:24;30.20;1.00
6206;DHT22;3136;48.788;9.772;2023-07-20T13:38:50;30.90;1.00
6206;DHT22;3136;48.788;9.772;2023-07-20T13:41:15;31.40;1.00
6206;DHT22;3136;48.788;9.772;2023-07-20T13:43:44;31.60;1.00
6206;DHT22;3136;48.788;9.772;2023-07-20T13:46:10;31.50;1.00
6206;DHT22;3136;48.788;9.772;2023-07-20T13:48:35;31.40;1.00
6206;DHT22;3136;48.788;9.772;2023-07-20T13:51:01;31.50;1.00
6206;DHT22;3136;48.788;9.772;2023-07-20T13:53:26;32.20;1.00
6206;DHT22;3136;48.788;9.772;2023-07-20T13:55:53;31.90;1.00
6206;DHT22;3136;48.788;9.772;2023-07-20T13:58:18;31.20;1.00
6206;DHT22;3136;48.788;9.772;2023-07-20T14:00:44;30.30;1.00
6206;DHT22;3136;48.788;9.772;2023-07-20T14:03:10;29.70;1.00
6206;DHT22;3136;48.788;9.772;2023-07-20T14:05:36;29.50;1.00
6206;DHT22;3136;48.788;9.772;2023-07-20T14:08:01;29.10;1.00
6206;DHT22;3136;48.788;9.772;2023-07-20T14:10:27;28.60;1.00
6206;DHT22;3136;48.788;9.772;2023-07-20T14:12:52;28.10;1.00
6206;DHT22;3136;48.788;9.772;2023-07-20T14:15:18;27.70;1.00
6206;DHT22;3136;48.788;9.772;2023-07-20T14:17:44;27.30;1.00
6206;DHT22;3136;48.788;9.772;2023-07-20T14:20:10;27.20;1.00
6206;DHT22;3136;48.788;9.772;2023-07-20T14:22:36;27.10;1.00
6206;DHT22;3136;48.788;9.772;2023-07-20T14:25:02;26.90;1.00
6206;DHT22;3136;48.788;9.772;2023-07-20T14:27:28;26.50;1.00
6206;DHT22;3136;48.788;9.772;2023-07-20T14:29:53;26.20;1.00
6206;DHT22;3136;48.788;9.772;2023-07-20T14:32:19;26.20;1.00
6206;DHT22;3136;48.788;9.772;2023-07-20T14:34:44;26.20;1.00
6206;DHT22;3136;48.788;9.772;2023-07-20T14:37:10;26.30;1.00
6206;DHT22;3136;48.788;9.772;2023-07-20T14:39:35;26.30;1.00
6206;DHT22;3136;48.788;9.772;2023-07-20T14:42:01;26.20;1.00
6206;DHT22;3136;48.788;9.772;2023-07-20T14:44:29;26.20;1.00
6206;DHT22;3136;48.788;9.772;2023-07-20T14:46:54;26.20;1.00
6206;DHT22;3136;48.788;9.772;2023-07-20T14:49:20;26.20;1.00
6206;DHT22;3136;48.788;9.772;2023-07-20T14:51:46;26.20;1.00
6206;DHT22;3136;48.788;9.772;2023-07-20T14:54:13;26.20;1.00
6206;DHT22;3136;48.788;9.772;2023-07-20T14:56:39;26.20;1.00
6206;DHT22;3136;48.788;9.772;2023-07-20T14:59:05;26.10;1.00
6206;DHT22;3136;48.788;9.772;2023-07-20T15:01:32;26.70;1.00
6206;DHT22;3136;48.788;9.772;2023-07-20T15:03:57;26.10;1.00
6206;DHT22;3136;48.788;9.772;2023-07-20T15:06:25;26.10;1.00
6206;DHT22;3136;48.788;9.772;2023-07-20T15:08:52;26.00;1.00
6206;DHT22;3136;48.788;9.772;2023-07-20T15:11:17;26.10;1.00
6206;DHT22;3136;48.788;9.772;2023-07-20T15:13:43;26.00;1.00
6206;DHT22;3136;48.788;9.772;2023-07-20T15:16:08;26.00;1.00
6206;DHT22;3136;48.788;9.772;2023-07-20T15:18:36;25.90;1.00
6206;DHT22;3136;48.788;9.772;2023-07-20T15:21:01;25.70;1.00
6206;DHT22;3136;48.788;9.772;2023-07-20T15:23:27;25.60;1.00
6206;DHT22;3136;48.788;9.772;2023-07-20T15:25:53;25.60;1.00
6206;DHT22;3136;48.788;9.772;2023-07-20T15:28:18;25.60;1.00
6206;DHT22;3136;48.788;9.772;2023-07-20T15:30:44;25.60;1.00
6206;DHT22;3136;48.788;9.772;2023-07-20T15:33:09;25.60;1.00
6206;DHT22;3136;48.788;9.772;2023-07-20T15:35:35;25.60;1.00
6206;DHT22;3136;48.788;9.772;2023-07-20T15:38:01;25.60;1.00
6206;DHT22;3136;48.788;9.772;2023-07-20T15:40:26;25.70;1.00
6206;DHT22;3136;48.788;9.772;2023-07-20T15:42:52;25.80;1.00
6206;DHT22;3136;48.788;9.772;2023-07-20T15:45:18;25.80;1.00
6206;DHT22;3136;48.788;9.772;2023-07-20T15:47:43;25.80;1.00
6206;DHT22;3136;48.788;9.772;2023-07-20T15:50:09;25.70;1.00
6206;DHT22;3136;48.788;9.772;2023-07-20T15:52:35;25.70;1.00
6206;DHT22;3136;48.788;9.772;2023-07-20T15:55:00;25.70;1.00
6206;DHT22;3136;48.788;9.772;2023-07-20T15:57:26;25.70;1.00
6206;DHT22;3136;48.788;9.772;2023-07-20T15:59:51;25.60;1.00
6206;DHT22;3136;48.788;9.772;2023-07-20T16:02:17;25.50;1.00
6206;DHT22;3136;48.788;9.772;2023-07-20T16:04:43;25.50;1.00
6206;DHT22;3136;48.788;9.772;2023-07-20T16:07:11;25.50;1.00
6206;DHT22;3136;48.788;9.772;2023-07-20T16:09:36;25.30;1.00
6206;DHT22;3136;48.788;9.772;2023-07-20T16:12:03;25.30;1.00
6206;DHT22;3136;48.788;9.772;2023-07-20T16:14:29;25.30;1.00
6206;DHT22;3136;48.788;9.772;2023-07-20T16:16:54;25.30;1.00
6206;DHT22;3136;48.788;9.772;2023-07-20T16:19:20;25.20;1.00
6206;DHT22;3136;48.788;9.772;2023-07-20T16:21:46;25.20;1.00
6206;DHT22;3136;48.788;9.772;2023-07-20T16:24:11;25.20;1.00
6206;DHT22;3136;48.788;9.772;2023-07-20T16:26:38;25.20;1.00